Airfield :







YOU CAN JOIN US ON...

 
LOGIN :

Register | Disclaimer

   EN    FR    IT 

 









Legend :    VFR   Marginal VFR   IFR   Intensive IFR   Very Intensive IFR
Visi :
Ceiling :
>= 8 km
>= 3000ft
5 to 8 km
1000 to 3000 ft
1500m to 5 km
500 to 1000 ft
800 to 1500m
200 to 500 ft
< 800m
< 200 ft
Symbols :   Thunderstorms  Fog  Heavy snow  Heavy precipitations  Wind > 20 kt






- Airport Elevation : 198 ft
- IATA code : STM


SBSN - Maestro Wilson Fonseca Int.

CURRENT METAR :
  • 240400Z 17003KT CAVOK 24/24 Q1010

EXPIRED METARs :
  • 240300Z 19003KT CAVOK 25/23 Q1011
  • 240200Z 18003KT CAVOK 25/24 Q1011

TAF TAF SBSN
Valid from the 24 at 00:00 until the 25 at 00:00 UTC


232000Z 2400/2424 11005KT 9999 SCT020 TN24/2409Z TX29/2417Z
BECMG 2402/2404 08010KT 8000 SCT015 FEW025TCU
TEMPO 2404/2410 06015KT 4000 TSRA BKN013 FEW025CB
BECMG 2410/2411 10010KT BKN015
BECMG 2414/2416 9999 SCT017
BECMG 2421/2423 13007KT FEW015 RMK PGB



MET'MAP, your aeronautical weather chart ! - Copyright ORBIFLY December 2007 - Disclaimer

ORBIFLY MET'MAP TEAM :

Programming & Development : Alexandra Zaïnal
Concept & original design : Baudouin d'Aumeries
Assistance for programming : Marc-Olivier Méhu
Technical & hardware support : Manuel Goepfert

Contact : metmap@orbifly.com




SOURCES & CREDITS :

   NOAA